sensor_id;sensor_type;location;lat;lon;timestamp;temperature;humidity
41928;DHT22;27616;51.420;6.788;2023-04-25T00:01:48;6.60;99.90
41928;DHT22;27616;51.420;6.788;2023-04-25T00:04:14;6.60;99.90
41928;DHT22;27616;51.420;6.788;2023-04-25T00:06:39;6.70;99.90
41928;DHT22;27616;51.420;6.788;2023-04-25T00:09:06;6.70;99.90
41928;DHT22;27616;51.420;6.788;2023-04-25T00:11:36;6.80;99.90
41928;DHT22;27616;51.420;6.788;2023-04-25T00:14:03;6.80;99.90
41928;DHT22;27616;51.420;6.788;2023-04-25T00:16:30;6.80;99.90
41928;DHT22;27616;51.420;6.788;2023-04-25T00:18:59;6.80;99.90
41928;DHT22;27616;51.420;6.788;2023-04-25T00:21:25;6.80;99.90
41928;DHT22;27616;51.420;6.788;2023-04-25T00:23:52;6.80;99.90
41928;DHT22;27616;51.420;6.788;2023-04-25T00:26:18;6.80;99.90
41928;DHT22;27616;51.420;6.788;2023-04-25T00:28:44;6.90;99.90
41928;DHT22;27616;51.420;6.788;2023-04-25T00:31:10;6.90;99.90
41928;DHT22;27616;51.420;6.788;2023-04-25T00:33:36;6.90;99.90
41928;DHT22;27616;51.420;6.788;2023-04-25T00:36:01;6.90;99.90
41928;DHT22;27616;51.420;6.788;2023-04-25T00:38:27;6.80;99.90
41928;DHT22;27616;51.420;6.788;2023-04-25T00:40:53;6.80;99.90
41928;DHT22;27616;51.420;6.788;2023-04-25T00:43:21;6.80;99.90
41928;DHT22;27616;51.420;6.788;2023-04-25T00:45:47;6.80;99.90
41928;DHT22;27616;51.420;6.788;2023-04-25T00:48:15;6.80;99.90
41928;DHT22;27616;51.420;6.788;2023-04-25T00:50:53;6.80;99.90
41928;DHT22;27616;51.420;6.788;2023-04-25T00:53:23;6.80;99.90
41928;DHT22;27616;51.420;6.788;2023-04-25T00:55:50;6.90;99.90
41928;DHT22;27616;51.420;6.788;2023-04-25T00:58:22;6.90;99.90
41928;DHT22;27616;51.420;6.788;2023-04-25T01:00:50;6.90;99.90
41928;DHT22;27616;51.420;6.788;2023-04-25T01:03:16;6.90;99.90
41928;DHT22;27616;51.420;6.788;2023-04-25T01:05:45;6.80;99.90
41928;DHT22;27616;51.420;6.788;2023-04-25T01:08:11;6.70;99.90
41928;DHT22;27616;51.420;6.788;2023-04-25T01:10:37;6.70;99.90
41928;DHT22;27616;51.420;6.788;2023-04-25T01:13:03;6.70;99.90
41928;DHT22;27616;51.420;6.788;2023-04-25T01:15:29;6.80;99.90
41928;DHT22;27616;51.420;6.788;2023-04-25T01:17:54;6.70;99.90
41928;DHT22;27616;51.420;6.788;2023-04-25T01:20:24;6.80;99.90
41928;DHT22;27616;51.420;6.788;2023-04-25T01:22:51;6.80;99.90
41928;DHT22;27616;51.420;6.788;2023-04-25T01:25:19;6.80;99.90
41928;DHT22;27616;51.420;6.788;2023-04-25T01:27:45;6.80;99.90
41928;DHT22;27616;51.420;6.788;2023-04-25T01:30:11;6.80;99.90
41928;DHT22;27616;51.420;6.788;2023-04-25T01:32:38;6.80;99.90
41928;DHT22;27616;51.420;6.788;2023-04-25T01:35:05;6.70;99.90
41928;DHT22;27616;51.420;6.788;2023-04-25T01:37:36;6.70;99.90
41928;DHT22;27616;51.420;6.788;2023-04-25T01:40:03;6.80;99.90
41928;DHT22;27616;51.420;6.788;2023-04-25T01:42:31;6.80;99.90
41928;DHT22;27616;51.420;6.788;2023-04-25T01:44:58;6.70;99.90
41928;DHT22;27616;51.420;6.788;2023-04-25T01:47:24;6.70;99.90
41928;DHT22;27616;51.420;6.788;2023-04-25T01:49:49;6.80;99.90
41928;DHT22;27616;51.420;6.788;2023-04-25T01:52:15;6.80;99.90
41928;DHT22;27616;51.420;6.788;2023-04-25T01:54:41;6.80;99.90
41928;DHT22;27616;51.420;6.788;2023-04-25T01:57:11;6.80;99.90
41928;DHT22;27616;51.420;6.788;2023-04-25T01:59:38;6.80;99.90
41928;DHT22;27616;51.420;6.788;2023-04-25T02:02:12;6.80;99.90
41928;DHT22;27616;51.420;6.788;2023-04-25T02:04:37;6.70;99.90
41928;DHT22;27616;51.420;6.788;2023-04-25T02:07:03;6.70;99.90
41928;DHT22;27616;51.420;6.788;2023-04-25T02:09:39;6.70;99.90
41928;DHT22;27616;51.420;6.788;2023-04-25T02:12:08;6.70;99.90
41928;DHT22;27616;51.420;6.788;2023-04-25T02:14:52;6.70;99.90
41928;DHT22;27616;51.420;6.788;2023-04-25T02:17:26;6.70;99.90
41928;DHT22;27616;51.420;6.788;2023-04-25T02:19:51;6.70;99.90
41928;DHT22;27616;51.420;6.788;2023-04-25T02:22:17;6.60;99.90
41928;DHT22;27616;51.420;6.788;2023-04-25T02:24:43;6.60;99.90
41928;DHT22;27616;51.420;6.788;2023-04-25T02:27:09;6.60;99.90
41928;DHT22;27616;51.420;6.788;2023-04-25T02:29:35;6.60;99.90
41928;DHT22;27616;51.420;6.788;2023-04-25T02:32:02;6.60;99.90
41928;DHT22;27616;51.420;6.788;2023-04-25T02:34:27;6.60;99.90
41928;DHT22;27616;51.420;6.788;2023-04-25T02:36:53;6.70;99.90
41928;DHT22;27616;51.420;6.788;2023-04-25T02:39:19;6.70;99.90
41928;DHT22;27616;51.420;6.788;2023-04-25T02:41:44;6.70;99.90
41928;DHT22;27616;51.420;6.788;2023-04-25T02:44:10;6.70;99.90
41928;DHT22;27616;51.420;6.788;2023-04-25T02:46:37;6.70;99.90
41928;DHT22;27616;51.420;6.788;2023-04-25T02:49:02;6.60;99.90
41928;DHT22;27616;51.420;6.788;2023-04-25T02:51:29;6.60;99.90
41928;DHT22;27616;51.420;6.788;2023-04-25T02:53:55;6.60;99.90
41928;DHT22;27616;51.420;6.788;2023-04-25T02:56:21;6.60;99.90
41928;DHT22;27616;51.420;6.788;2023-04-25T02:58:47;6.60;99.90
41928;DHT22;27616;51.420;6.788;2023-04-25T03:01:12;6.60;99.90
41928;DHT22;27616;51.420;6.788;2023-04-25T03:03:38;6.70;99.90
41928;DHT22;27616;51.420;6.788;2023-04-25T03:06:04;6.60;99.90
41928;DHT22;27616;51.420;6.788;2023-04-25T03:08:32;6.50;99.90
41928;DHT22;27616;51.420;6.788;2023-04-25T03:11:00;6.50;99.90
41928;DHT22;27616;51.420;6.788;2023-04-25T03:13:26;6.40;99.90
41928;DHT22;27616;51.420;6.788;2023-04-25T03:15:53;6.50;99.90
41928;DHT22;27616;51.420;6.788;2023-04-25T03:18:19;6.40;99.90
41928;DHT22;27616;51.420;6.788;2023-04-25T03:20:44;6.50;99.90
41928;DHT22;27616;51.420;6.788;2023-04-25T03:23:10;6.40;99.90
41928;DHT22;27616;51.420;6.788;2023-04-25T03:25:38;6.40;99.90
41928;DHT22;27616;51.420;6.788;2023-04-25T03:28:05;6.40;99.90
41928;DHT22;27616;51.420;6.788;2023-04-25T03:30:31;6.30;99.90
41928;DHT22;27616;51.420;6.788;2023-04-25T03:32:57;6.30;99.90
41928;DHT22;27616;51.420;6.788;2023-04-25T03:35:23;6.40;99.90
41928;DHT22;27616;51.420;6.788;2023-04-25T03:37:50;6.30;99.90
41928;DHT22;27616;51.420;6.788;2023-04-25T03:40:21;6.30;99.90
41928;DHT22;27616;51.420;6.788;2023-04-25T03:43:09;6.30;99.90
41928;DHT22;27616;51.420;6.788;2023-04-25T03:45:36;6.30;99.90
41928;DHT22;27616;51.420;6.788;2023-04-25T03:48:02;6.40;99.90
41928;DHT22;27616;51.420;6.788;2023-04-25T03:50:30;6.40;99.90
41928;DHT22;27616;51.420;6.788;2023-04-25T03:52:56;6.40;99.90
41928;DHT22;27616;51.420;6.788;2023-04-25T03:55:24;6.30;99.90
41928;DHT22;27616;51.420;6.788;2023-04-25T03:57:49;6.30;99.90
41928;DHT22;27616;51.420;6.788;2023-04-25T04:00:16;6.20;99.90
41928;DHT22;27616;51.420;6.788;2023-04-25T04:02:41;6.30;99.90
41928;DHT22;27616;51.420;6.788;2023-04-25T04:05:09;6.30;99.90
41928;DHT22;27616;51.420;6.788;2023-04-25T04:07:38;6.30;99.90
41928;DHT22;27616;51.420;6.788;2023-04-25T04:10:08;6.30;99.90
41928;DHT22;27616;51.420;6.788;2023-04-25T04:12:37;6.20;99.90
41928;DHT22;27616;51.420;6.788;2023-04-25T04:15:07;6.30;99.90
41928;DHT22;27616;51.420;6.788;2023-04-25T04:17:34;6.30;99.90
41928;DHT22;27616;51.420;6.788;2023-04-25T04:20:00;6.20;99.90
41928;DHT22;27616;51.420;6.788;2023-04-25T04:22:29;6.10;99.90
41928;DHT22;27616;51.420;6.788;2023-04-25T04:24:59;6.10;99.90
41928;DHT22;27616;51.420;6.788;2023-04-25T04:27:47;6.10;99.90
41928;DHT22;27616;51.420;6.788;2023-04-25T04:30:23;6.10;99.90
41928;DHT22;27616;51.420;6.788;2023-04-25T04:33:04;6.00;99.90
41928;DHT22;27616;51.420;6.788;2023-04-25T04:35:30;6.00;99.90
41928;DHT22;27616;51.420;6.788;2023-04-25T04:37:55;5.90;99.90
41928;DHT22;27616;51.420;6.788;2023-04-25T04:40:24;5.90;99.90
41928;DHT22;27616;51.420;6.788;2023-04-25T04:43:03;5.90;99.90
41928;DHT22;27616;51.420;6.788;2023-04-25T04:45:48;5.90;99.90
41928;DHT22;27616;51.420;6.788;2023-04-25T04:48:41;5.90;99.90
41928;DHT22;27616;51.420;6.788;2023-04-25T04:51:33;5.80;99.90
41928;DHT22;27616;51.420;6.788;2023-04-25T04:54:10;5.80;99.90
41928;DHT22;27616;51.420;6.788;2023-04-25T04:56:56;5.80;99.90
41928;DHT22;27616;51.420;6.788;2023-04-25T05:00:01;5.70;99.90
41928;DHT22;27616;51.420;6.788;2023-04-25T05:02:47;5.70;99.90
41928;DHT22;27616;51.420;6.788;2023-04-25T05:05:31;5.70;99.90
41928;DHT22;27616;51.420;6.788;2023-04-25T05:08:15;5.60;99.90
41928;DHT22;27616;51.420;6.788;2023-04-25T05:10:52;5.70;99.90
41928;DHT22;27616;51.420;6.788;2023-04-25T05:13:29;5.70;99.90
41928;DHT22;27616;51.420;6.788;2023-04-25T05:16:03;5.70;99.90
41928;DHT22;27616;51.420;6.788;2023-04-25T05:18:58;5.70;99.90
41928;DHT22;27616;51.420;6.788;2023-04-25T05:21:43;5.80;99.90
41928;DHT22;27616;51.420;6.788;2023-04-25T05:24:43;5.80;99.90
41928;DHT22;27616;51.420;6.788;2023-04-25T05:27:45;5.80;99.90
41928;DHT22;27616;51.420;6.788;2023-04-25T05:30:22;5.80;99.90
41928;DHT22;27616;51.420;6.788;2023-04-25T05:33:04;5.80;99.90
41928;DHT22;27616;51.420;6.788;2023-04-25T05:35:30;5.90;99.90
41928;DHT22;27616;51.420;6.788;2023-04-25T05:37:56;5.90;99.90
41928;DHT22;27616;51.420;6.788;2023-04-25T05:40:34;6.00;99.90
41928;DHT22;27616;51.420;6.788;2023-04-25T05:43:10;6.10;99.90
41928;DHT22;27616;51.420;6.788;2023-04-25T05:46:02;6.20;99.90
41928;DHT22;27616;51.420;6.788;2023-04-25T05:48:51;6.20;99.90
41928;DHT22;27616;51.420;6.788;2023-04-25T05:51:39;6.30;99.90
41928;DHT22;27616;51.420;6.788;2023-04-25T05:54:25;6.30;99.90
41928;DHT22;27616;51.420;6.788;2023-04-25T05:56:53;6.50;99.90
41928;DHT22;27616;51.420;6.788;2023-04-25T05:59:19;6.60;99.90
41928;DHT22;27616;51.420;6.788;2023-04-25T06:01:45;6.60;99.90
41928;DHT22;27616;51.420;6.788;2023-04-25T06:04:12;6.60;99.90
41928;DHT22;27616;51.420;6.788;2023-04-25T06:06:38;6.70;99.90
41928;DHT22;27616;51.420;6.788;2023-04-25T06:09:03;6.80;99.90
41928;DHT22;27616;51.420;6.788;2023-04-25T06:11:30;6.90;99.90
41928;DHT22;27616;51.420;6.788;2023-04-25T06:13:56;6.90;99.90
41928;DHT22;27616;51.420;6.788;2023-04-25T06:16:22;7.10;99.90
41928;DHT22;27616;51.420;6.788;2023-04-25T06:18:48;7.00;99.90
41928;DHT22;27616;51.420;6.788;2023-04-25T06:21:14;7.20;99.90
41928;DHT22;27616;51.420;6.788;2023-04-25T06:23:40;7.20;99.90
41928;DHT22;27616;51.420;6.788;2023-04-25T06:26:08;7.30;99.90
41928;DHT22;27616;51.420;6.788;2023-04-25T06:28:37;7.40;99.90
41928;DHT22;27616;51.420;6.788;2023-04-25T06:31:03;7.50;99.90
41928;DHT22;27616;51.420;6.788;2023-04-25T06:33:29;7.60;99.90
41928;DHT22;27616;51.420;6.788;2023-04-25T06:35:57;7.60;99.90
41928;DHT22;27616;51.420;6.788;2023-04-25T06:38:26;7.60;99.90
41928;DHT22;27616;51.420;6.788;2023-04-25T06:40:53;7.60;99.90
41928;DHT22;27616;51.420;6.788;2023-04-25T06:43:19;7.80;99.90
41928;DHT22;27616;51.420;6.788;2023-04-25T06:46:05;7.80;99.90
41928;DHT22;27616;51.420;6.788;2023-04-25T06:48:34;7.60;99.90
41928;DHT22;27616;51.420;6.788;2023-04-25T06:51:00;7.50;99.90
41928;DHT22;27616;51.420;6.788;2023-04-25T06:53:27;7.40;99.90
41928;DHT22;27616;51.420;6.788;2023-04-25T06:55:59;7.40;99.90
41928;DHT22;27616;51.420;6.788;2023-04-25T06:58:30;7.40;99.90
41928;DHT22;27616;51.420;6.788;2023-04-25T07:00:55;7.40;99.90
41928;DHT22;27616;51.420;6.788;2023-04-25T07:03:23;7.40;99.90
41928;DHT22;27616;51.420;6.788;2023-04-25T07:05:52;7.40;99.90
41928;DHT22;27616;51.420;6.788;2023-04-25T07:08:18;7.40;99.90
41928;DHT22;27616;51.420;6.788;2023-04-25T07:10:44;7.40;99.90
41928;DHT22;27616;51.420;6.788;2023-04-25T07:13:11;7.30;99.90
41928;DHT22;27616;51.420;6.788;2023-04-25T07:15:37;7.30;99.90
41928;DHT22;27616;51.420;6.788;2023-04-25T07:18:03;7.40;99.90
41928;DHT22;27616;51.420;6.788;2023-04-25T07:20:29;7.40;99.90
41928;DHT22;27616;51.420;6.788;2023-04-25T07:22:57;7.30;99.90
41928;DHT22;27616;51.420;6.788;2023-04-25T07:25:23;7.40;99.90
41928;DHT22;27616;51.420;6.788;2023-04-25T07:27:49;7.60;99.90
41928;DHT22;27616;51.420;6.788;2023-04-25T07:30:20;7.80;99.90
41928;DHT22;27616;51.420;6.788;2023-04-25T07:32:46;8.40;99.90
41928;DHT22;27616;51.420;6.788;2023-04-25T07:35:12;9.00;99.90
41928;DHT22;27616;51.420;6.788;2023-04-25T07:37:38;9.30;99.90
41928;DHT22;27616;51.420;6.788;2023-04-25T07:40:15;9.50;99.90
41928;DHT22;27616;51.420;6.788;2023-04-25T07:42:52;9.80;99.90
41928;DHT22;27616;51.420;6.788;2023-04-25T07:45:32;9.90;99.90
41928;DHT22;27616;51.420;6.788;2023-04-25T07:47:58;9.70;99.90
41928;DHT22;27616;51.420;6.788;2023-04-25T07:50:24;9.60;99.90
41928;DHT22;27616;51.420;6.788;2023-04-25T07:52:49;9.60;99.90
41928;DHT22;27616;51.420;6.788;2023-04-25T07:55:27;9.50;99.90
41928;DHT22;27616;51.420;6.788;2023-04-25T07:58:02;9.60;99.90
41928;DHT22;27616;51.420;6.788;2023-04-25T08:00:30;10.00;99.90
41928;DHT22;27616;51.420;6.788;2023-04-25T08:03:16;10.20;99.90
41928;DHT22;27616;51.420;6.788;2023-04-25T08:05:42;10.30;99.90
41928;DHT22;27616;51.420;6.788;2023-04-25T08:08:08;10.60;99.90
41928;DHT22;27616;51.420;6.788;2023-04-25T08:10:34;10.40;99.90
41928;DHT22;27616;51.420;6.788;2023-04-25T08:13:00;10.00;99.90
41928;DHT22;27616;51.420;6.788;2023-04-25T08:15:26;9.90;99.90
41928;DHT22;27616;51.420;6.788;2023-04-25T08:17:52;10.00;99.90
41928;DHT22;27616;51.420;6.788;2023-04-25T08:20:18;10.10;99.90
41928;DHT22;27616;51.420;6.788;2023-04-25T08:22:44;10.20;99.90
41928;DHT22;27616;51.420;6.788;2023-04-25T08:25:19;10.20;99.90
41928;DHT22;27616;51.420;6.788;2023-04-25T08:27:45;10.30;99.90
41928;DHT22;27616;51.420;6.788;2023-04-25T08:30:12;10.60;99.90
41928;DHT22;27616;51.420;6.788;2023-04-25T08:32:39;10.30;99.90
41928;DHT22;27616;51.420;6.788;2023-04-25T08:35:27;10.20;99.90
41928;DHT22;27616;51.420;6.788;2023-04-25T08:37:53;10.10;99.90
41928;DHT22;27616;51.420;6.788;2023-04-25T08:40:22;10.10;99.90
41928;DHT22;27616;51.420;6.788;2023-04-25T08:43:00;10.00;99.90
41928;DHT22;27616;51.420;6.788;2023-04-25T08:45:31;10.20;99.90
41928;DHT22;27616;51.420;6.788;2023-04-25T08:47:58;10.30;99.90
41928;DHT22;27616;51.420;6.788;2023-04-25T08:50:25;10.20;99.90
41928;DHT22;27616;51.420;6.788;2023-04-25T08:52:53;10.20;99.90
41928;DHT22;27616;51.420;6.788;2023-04-25T08:55:21;10.00;99.90
41928;DHT22;27616;51.420;6.788;2023-04-25T08:57:50;9.80;99.90
41928;DHT22;27616;51.420;6.788;2023-04-25T09:00:18;9.80;99.90
41928;DHT22;27616;51.420;6.788;2023-04-25T09:02:46;9.70;99.90
41928;DHT22;27616;51.420;6.788;2023-04-25T09:05:13;9.80;99.90
41928;DHT22;27616;51.420;6.788;2023-04-25T09:07:40;9.50;99.90
41928;DHT22;27616;51.420;6.788;2023-04-25T09:10:06;9.60;99.90
41928;DHT22;27616;51.420;6.788;2023-04-25T09:12:35;9.90;99.90
41928;DHT22;27616;51.420;6.788;2023-04-25T09:15:10;10.40;99.90
41928;DHT22;27616;51.420;6.788;2023-04-25T09:18:05;10.80;99.90
41928;DHT22;27616;51.420;6.788;2023-04-25T09:20:43;10.90;99.90
41928;DHT22;27616;51.420;6.788;2023-04-25T09:23:08;11.10;99.90
41928;DHT22;27616;51.420;6.788;2023-04-25T09:25:37;11.30;99.90
41928;DHT22;27616;51.420;6.788;2023-04-25T09:28:06;11.30;99.90
41928;DHT22;27616;51.420;6.788;2023-04-25T09:30:36;11.50;99.90
41928;DHT22;27616;51.420;6.788;2023-04-25T09:33:27;11.70;99.90
41928;DHT22;27616;51.420;6.788;2023-04-25T09:35:54;11.70;99.90
41928;DHT22;27616;51.420;6.788;2023-04-25T09:38:42;11.60;99.90
41928;DHT22;27616;51.420;6.788;2023-04-25T09:41:25;11.70;99.50
41928;DHT22;27616;51.420;6.788;2023-04-25T09:43:57;11.70;98.80
41928;DHT22;27616;51.420;6.788;2023-04-25T09:46:32;11.70;99.40
41928;DHT22;27616;51.420;6.788;2023-04-25T09:48:57;11.50;99.50
41928;DHT22;27616;51.420;6.788;2023-04-25T09:51:31;11.50;99.60
41928;DHT22;27616;51.420;6.788;2023-04-25T09:53:59;11.40;97.60
41928;DHT22;27616;51.420;6.788;2023-04-25T09:56:36;11.40;99.00
41928;DHT22;27616;51.420;6.788;2023-04-25T09:59:05;11.20;98.10
41928;DHT22;27616;51.420;6.788;2023-04-25T10:01:34;11.00;99.10
41928;DHT22;27616;51.420;6.788;2023-04-25T10:04:10;11.00;99.40
41928;DHT22;27616;51.420;6.788;2023-04-25T10:06:59;11.10;99.80
41928;DHT22;27616;51.420;6.788;2023-04-25T10:09:26;11.40;98.20
41928;DHT22;27616;51.420;6.788;2023-04-25T10:11:54;11.60;97.20
41928;DHT22;27616;51.420;6.788;2023-04-25T10:14:22;11.70;98.50
41928;DHT22;27616;51.420;6.788;2023-04-25T10:16:49;11.80;97.00
41928;DHT22;27616;51.420;6.788;2023-04-25T10:19:19;11.70;98.20
41928;DHT22;27616;51.420;6.788;2023-04-25T10:21:51;11.40;97.40
41928;DHT22;27616;51.420;6.788;2023-04-25T10:24:18;11.40;99.30
41928;DHT22;27616;51.420;6.788;2023-04-25T10:26:44;11.80;98.10
41928;DHT22;27616;51.420;6.788;2023-04-25T10:29:10;12.30;96.60
41928;DHT22;27616;51.420;6.788;2023-04-25T10:31:45;12.80;95.70
41928;DHT22;27616;51.420;6.788;2023-04-25T10:34:11;13.20;95.90
41928;DHT22;27616;51.420;6.788;2023-04-25T10:36:37;13.30;96.10
41928;DHT22;27616;51.420;6.788;2023-04-25T10:39:06;13.30;95.60
41928;DHT22;27616;51.420;6.788;2023-04-25T10:41:53;13.30;95.40
41928;DHT22;27616;51.420;6.788;2023-04-25T10:44:18;14.40;94.20
41928;DHT22;27616;51.420;6.788;2023-04-25T10:46:45;15.70;91.60
41928;DHT22;27616;51.420;6.788;2023-04-25T10:49:36;15.70;90.30
41928;DHT22;27616;51.420;6.788;2023-04-25T10:55:02;13.90;92.30
41928;DHT22;27616;51.420;6.788;2023-04-25T10:57:32;13.30;91.10
41928;DHT22;27616;51.420;6.788;2023-04-25T11:02:31;12.40;96.70
41928;DHT22;27616;51.420;6.788;2023-04-25T11:04:57;12.00;97.60
41928;DHT22;27616;51.420;6.788;2023-04-25T11:07:33;11.60;98.40
41928;DHT22;27616;51.420;6.788;2023-04-25T11:10:02;11.20;99.90
41928;DHT22;27616;51.420;6.788;2023-04-25T11:12:30;11.00;99.90
41928;DHT22;27616;51.420;6.788;2023-04-25T11:15:04;11.00;99.90
41928;DHT22;27616;51.420;6.788;2023-04-25T11:17:30;10.80;99.90
41928;DHT22;27616;51.420;6.788;2023-04-25T11:19:56;10.60;99.90
41928;DHT22;27616;51.420;6.788;2023-04-25T11:22:23;10.70;99.90
41928;DHT22;27616;51.420;6.788;2023-04-25T11:24:48;10.60;99.90
41928;DHT22;27616;51.420;6.788;2023-04-25T11:27:14;10.40;99.90
41928;DHT22;27616;51.420;6.788;2023-04-25T11:29:40;10.30;99.90
41928;DHT22;27616;51.420;6.788;2023-04-25T11:32:07;10.10;99.90
41928;DHT22;27616;51.420;6.788;2023-04-25T11:34:33;10.30;99.90
41928;DHT22;27616;51.420;6.788;2023-04-25T11:37:01;10.30;99.90
41928;DHT22;27616;51.420;6.788;2023-04-25T11:39:28;10.30;99.90
41928;DHT22;27616;51.420;6.788;2023-04-25T11:41:54;10.40;99.90
41928;DHT22;27616;51.420;6.788;2023-04-25T11:44:21;10.40;99.90
41928;DHT22;27616;51.420;6.788;2023-04-25T11:46:48;10.30;99.90
41928;DHT22;27616;51.420;6.788;2023-04-25T11:49:14;10.20;99.90
41928;DHT22;27616;51.420;6.788;2023-04-25T11:51:41;10.30;99.90
41928;DHT22;27616;51.420;6.788;2023-04-25T11:54:07;10.20;99.90
41928;DHT22;27616;51.420;6.788;2023-04-25T11:56:33;9.90;99.90
41928;DHT22;27616;51.420;6.788;2023-04-25T11:59:04;9.80;99.90
41928;DHT22;27616;51.420;6.788;2023-04-25T12:01:30;9.50;99.90
41928;DHT22;27616;51.420;6.788;2023-04-25T12:03:58;9.40;99.90
41928;DHT22;27616;51.420;6.788;2023-04-25T12:06:28;9.20;99.90
41928;DHT22;27616;51.420;6.788;2023-04-25T12:09:03;9.10;99.90
41928;DHT22;27616;51.420;6.788;2023-04-25T12:11:31;9.20;99.90
41928;DHT22;27616;51.420;6.788;2023-04-25T12:14:03;9.10;99.90
41928;DHT22;27616;51.420;6.788;2023-04-25T12:16:42;9.00;99.90
41928;DHT22;27616;51.420;6.788;2023-04-25T12:19:09;9.00;99.90
41928;DHT22;27616;51.420;6.788;2023-04-25T12:21:35;9.10;99.90
41928;DHT22;27616;51.420;6.788;2023-04-25T12:24:18;9.30;99.90
41928;DHT22;27616;51.420;6.788;2023-04-25T12:26:59;9.50;99.90
41928;DHT22;27616;51.420;6.788;2023-04-25T12:29:26;9.60;99.90
41928;DHT22;27616;51.420;6.788;2023-04-25T12:31:54;9.90;99.90
41928;DHT22;27616;51.420;6.788;2023-04-25T12:34:20;10.10;99.90
41928;DHT22;27616;51.420;6.788;2023-04-25T12:36:47;10.50;99.90
41928;DHT22;27616;51.420;6.788;2023-04-25T12:39:23;10.70;99.90
41928;DHT22;27616;51.420;6.788;2023-04-25T12:41:52;10.90;99.90
41928;DHT22;27616;51.420;6.788;2023-04-25T12:44:20;11.20;99.90
41928;DHT22;27616;51.420;6.788;2023-04-25T12:46:47;11.60;99.90
41928;DHT22;27616;51.420;6.788;2023-04-25T12:49:13;11.90;99.90
41928;DHT22;27616;51.420;6.788;2023-04-25T12:51:39;12.20;98.80
41928;DHT22;27616;51.420;6.788;2023-04-25T12:54:05;12.30;97.20
41928;DHT22;27616;51.420;6.788;2023-04-25T12:56:32;12.30;98.50
41928;DHT22;27616;51.420;6.788;2023-04-25T12:58:58;12.20;97.00
41928;DHT22;27616;51.420;6.788;2023-04-25T13:01:25;11.80;98.80
41928;DHT22;27616;51.420;6.788;2023-04-25T13:03:52;11.60;98.50
41928;DHT22;27616;51.420;6.788;2023-04-25T13:06:19;11.40;98.90
41928;DHT22;27616;51.420;6.788;2023-04-25T13:08:45;11.20;99.70
41928;DHT22;27616;51.420;6.788;2023-04-25T13:11:11;11.00;99.90
41928;DHT22;27616;51.420;6.788;2023-04-25T13:13:37;10.60;99.90
41928;DHT22;27616;51.420;6.788;2023-04-25T13:16:04;10.40;99.90
41928;DHT22;27616;51.420;6.788;2023-04-25T13:18:33;10.30;99.90
41928;DHT22;27616;51.420;6.788;2023-04-25T13:20:59;10.00;99.90
41928;DHT22;27616;51.420;6.788;2023-04-25T13:23:26;10.10;99.90
41928;DHT22;27616;51.420;6.788;2023-04-25T13:25:52;10.00;99.90
41928;DHT22;27616;51.420;6.788;2023-04-25T13:28:18;10.20;99.90
41928;DHT22;27616;51.420;6.788;2023-04-25T13:30:44;10.30;99.90
41928;DHT22;27616;51.420;6.788;2023-04-25T13:33:11;10.50;99.90
41928;DHT22;27616;51.420;6.788;2023-04-25T13:35:38;10.90;99.90
41928;DHT22;27616;51.420;6.788;2023-04-25T13:38:04;11.00;99.90
41928;DHT22;27616;51.420;6.788;2023-04-25T13:40:30;11.40;99.90
41928;DHT22;27616;51.420;6.788;2023-04-25T13:42:56;11.60;99.90
41928;DHT22;27616;51.420;6.788;2023-04-25T13:45:22;11.60;99.70
41928;DHT22;27616;51.420;6.788;2023-04-25T13:47:48;11.50;99.80
41928;DHT22;27616;51.420;6.788;2023-04-25T13:50:14;11.30;99.90
41928;DHT22;27616;51.420;6.788;2023-04-25T13:52:41;11.40;99.90
41928;DHT22;27616;51.420;6.788;2023-04-25T13:55:07;11.60;99.90
41928;DHT22;27616;51.420;6.788;2023-04-25T13:57:34;11.60;99.90
41928;DHT22;27616;51.420;6.788;2023-04-25T14:00:00;11.30;99.70
41928;DHT22;27616;51.420;6.788;2023-04-25T14:02:32;11.10;99.90
41928;DHT22;27616;51.420;6.788;2023-04-25T14:04:57;11.00;99.90
41928;DHT22;27616;51.420;6.788;2023-04-25T14:07:23;11.00;99.90
41928;DHT22;27616;51.420;6.788;2023-04-25T14:09:49;11.20;99.90
41928;DHT22;27616;51.420;6.788;2023-04-25T14:12:16;11.40;99.10
41928;DHT22;27616;51.420;6.788;2023-04-25T14:14:41;11.80;99.50
41928;DHT22;27616;51.420;6.788;2023-04-25T14:17:08;11.90;97.10
41928;DHT22;27616;51.420;6.788;2023-04-25T14:19:34;12.10;96.90
41928;DHT22;27616;51.420;6.788;2023-04-25T14:22:00;12.10;96.70
41928;DHT22;27616;51.420;6.788;2023-04-25T14:24:26;12.10;95.80
41928;DHT22;27616;51.420;6.788;2023-04-25T14:26:51;11.80;96.50
41928;DHT22;27616;51.420;6.788;2023-04-25T14:29:17;11.70;96.70
41928;DHT22;27616;51.420;6.788;2023-04-25T14:31:43;11.70;96.60
41928;DHT22;27616;51.420;6.788;2023-04-25T14:34:08;11.80;96.00
41928;DHT22;27616;51.420;6.788;2023-04-25T14:36:35;11.70;94.30
41928;DHT22;27616;51.420;6.788;2023-04-25T14:39:02;11.50;95.10
41928;DHT22;27616;51.420;6.788;2023-04-25T14:41:29;11.30;95.60
41928;DHT22;27616;51.420;6.788;2023-04-25T14:43:55;11.20;95.50
41928;DHT22;27616;51.420;6.788;2023-04-25T14:46:22;11.00;95.90
41928;DHT22;27616;51.420;6.788;2023-04-25T14:48:49;10.90;98.60
41928;DHT22;27616;51.420;6.788;2023-04-25T14:51:14;10.70;99.50
41928;DHT22;27616;51.420;6.788;2023-04-25T14:53:41;10.60;99.90
41928;DHT22;27616;51.420;6.788;2023-04-25T14:56:07;10.50;99.90
41928;DHT22;27616;51.420;6.788;2023-04-25T14:58:33;10.50;99.90
41928;DHT22;27616;51.420;6.788;2023-04-25T15:00:59;10.60;99.90
41928;DHT22;27616;51.420;6.788;2023-04-25T15:03:25;10.60;99.90
41928;DHT22;27616;51.420;6.788;2023-04-25T15:05:52;10.60;99.80
41928;DHT22;27616;51.420;6.788;2023-04-25T15:08:18;10.70;99.90
41928;DHT22;27616;51.420;6.788;2023-04-25T15:10:44;10.90;98.80
41928;DHT22;27616;51.420;6.788;2023-04-25T15:13:10;11.00;98.60
41928;DHT22;27616;51.420;6.788;2023-04-25T15:15:36;10.90;98.60
41928;DHT22;27616;51.420;6.788;2023-04-25T15:18:02;10.80;98.50
41928;DHT22;27616;51.420;6.788;2023-04-25T15:20:28;10.70;98.70
41928;DHT22;27616;51.420;6.788;2023-04-25T15:22:54;10.60;99.00
41928;DHT22;27616;51.420;6.788;2023-04-25T15:25:20;10.50;98.80
41928;DHT22;27616;51.420;6.788;2023-04-25T15:27:46;10.40;97.90
41928;DHT22;27616;51.420;6.788;2023-04-25T15:30:17;10.40;98.50
41928;DHT22;27616;51.420;6.788;2023-04-25T15:32:44;10.30;97.30
41928;DHT22;27616;51.420;6.788;2023-04-25T15:35:10;10.20;96.90
41928;DHT22;27616;51.420;6.788;2023-04-25T15:37:36;10.30;97.00
41928;DHT22;27616;51.420;6.788;2023-04-25T15:40:08;10.20;97.50
41928;DHT22;27616;51.420;6.788;2023-04-25T15:42:48;10.20;97.40
41928;DHT22;27616;51.420;6.788;2023-04-25T15:45:19;10.20;97.90
41928;DHT22;27616;51.420;6.788;2023-04-25T15:47:45;10.60;97.30
41928;DHT22;27616;51.420;6.788;2023-04-25T15:50:11;10.70;97.50
41928;DHT22;27616;51.420;6.788;2023-04-25T15:52:37;11.00;96.60
41928;DHT22;27616;51.420;6.788;2023-04-25T15:55:04;11.10;95.90
41928;DHT22;27616;51.420;6.788;2023-04-25T15:57:34;11.20;95.70
41928;DHT22;27616;51.420;6.788;2023-04-25T16:00:02;11.20;95.50